Map

Track Data

SID SEASON NUMBER BASIN SUBBASIN NAME ISO_TIME NATURE LAT LON WMO_WIND WMO_PRES WMO_AGENCY TRACK_TYPE DIST2LAND LANDFALL IFLAG USA_AGENCY USA_ATCF_ID USA_LAT USA_LON USA_RECORD USA_STATUS USA_WIND USA_PRES USA_SSHS USA_R34_NE USA_R34_SE USA_R34_SW USA_R34_NW USA_R50_NE USA_R50_SE USA_R50_SW USA_R50_NW USA_R64_NE USA_R64_SE USA_R64_SW USA_R64_NW USA_POCI USA_ROCI USA_RMW USA_EYE TOKYO_LAT TOKYO_LON TOKYO_GRADE TOKYO_WIND TOKYO_PRES TOKYO_R50_DIR TOKYO_R50_LONG TOKYO_R50_SHORT TOKYO_R30_DIR TOKYO_R30_LONG TOKYO_R30_SHORT TOKYO_LAND CMA_LAT CMA_LON CMA_CAT CMA_WIND CMA_PRES HKO_LAT HKO_LON HKO_CAT HKO_WIND HKO_PRES NEWDELHI_LAT NEWDELHI_LON NEWDELHI_GRADE NEWDELHI_WIND NEWDELHI_PRES NEWDELHI_CI NEWDELHI_DP NEWDELHI_POCI REUNION_LAT REUNION_LON REUNION_TYPE REUNION_WIND REUNION_PRES REUNION_TNUM REUNION_CI REUNION_RMW REUNION_R34_NE REUNION_R34_SE REUNION_R34_SW REUNION_R34_NW REUNION_R50_NE REUNION_R50_SE REUNION_R50_SW REUNION_R50_NW REUNION_R64_NE REUNION_R64_SE REUNION_R64_SW REUNION_R64_NW BOM_LAT BOM_LON BOM_TYPE BOM_WIND BOM_PRES BOM_TNUM BOM_CI BOM_RMW BOM_R34_NE BOM_R34_SE BOM_R34_SW BOM_R34_NW BOM_R50_NE BOM_R50_SE BOM_R50_SW BOM_R50_NW BOM_R64_NE BOM_R64_SE BOM_R64_SW BOM_R64_NW BOM_ROCI BOM_POCI BOM_EYE BOM_POS_METHOD BOM_PRES_METHOD NADI_LAT NADI_LON NADI_CAT NADI_WIND NADI_PRES WELLINGTON_LAT WELLINGTON_LON WELLINGTON_WIND WELLINGTON_PRES DS824_LAT DS824_LON DS824_STAGE DS824_WIND DS824_PRES TD9636_LAT TD9636_LON TD9636_STAGE TD9636_WIND TD9636_PRES TD9635_LAT TD9635_LON TD9635_WIND TD9635_PRES TD9635_ROCI NEUMANN_LAT NEUMANN_LON NEUMANN_CLASS NEUMANN_WIND NEUMANN_PRES MLC_LAT MLC_LON MLC_CLASS MLC_WIND MLC_PRES USA_GUST BOM_GUST BOM_GUST_PER REUNION_GUST REUNION_GUST_PER USA_SEAHGT USA_SEARAD_NE USA_SEARAD_SE USA_SEARAD_SW USA_SEARAD_NW STORM_SPEED STORM_DIR
1938007S10050 1938 4 SI MM NOT_NAMED 1938-01-07 06:00:00 NR -10.1000 49.6000 reunion main 226 226 _____O________ -1 -10.1000 49.6000 99 9.90000 2 43
1938007S10050 1938 4 SI MM NOT_NAMED 1938-01-07 09:00:00 NR -10.0132 49.6762 main 239 239 _____P________ -1 -10.0132 49.6762 99 2 42
1938007S10050 1938 4 SI MM NOT_NAMED 1938-01-07 12:00:00 NR -9.94177 49.7427 main 250 250 _____P________ -1 -9.94177 49.7427 99 2 45
1938007S10050 1938 4 SI MM NOT_NAMED 1938-01-07 15:00:00 NR -9.90119 49.7900 main 252 241 _____P________ -1 -9.90119 49.7900 99 0 0
1938007S10050 1938 4 SI MM NOT_NAMED 1938-01-07 18:00:00 NR -9.98547 49.7667 main 241 228 _____P____O___ -1 -9.90684 49.8083 99 -10.3000 49.6000 2 2 201
1938007S10050 1938 4 SI MM NOT_NAMED 1938-01-07 21:00:00 NR -10.0702 49.7165 main 228 215 _____P____P___ -1 -9.97411 49.7883 99 -10.2625 49.5731 2 2 212
1938007S10050 1938 4 SI MM NOT_NAMED 1938-01-08 00:00:00 NR -10.1877 49.6373 main 215 191 _____P____P___ -1 -10.1184 49.7201 99 -10.2800 49.5270 2 4 212
1938007S10050 1938 4 SI MM NOT_NAMED 1938-01-08 03:00:00 NR -10.3814 49.5182 main 191 157 _____P____P___ -1 -10.3552 49.5940 99 -10.4075 49.4425 2 6 209
1938007S10050 1938 4 SI MM NOT_NAMED 1938-01-08 06:00:00 TS -10.7000 49.3444 reunion main 156 101 _____O___OO___ -1 -10.7000 49.4000 99 9.90000 -10.7000 49.3000 TC 35 -10.7000 49.3000 2 9 206
1938007S10050 1938 4 SI MM NOT_NAMED 1938-01-08 09:00:00 TS -11.2120 49.1005 main 101 54 _____P___PP___ -1 -11.1608 49.1322 99 -11.3575 49.0677 TC 35 -11.1903 49.0853 2 13 205
1938007S10050 1938 4 SI MM NOT_NAMED 1938-01-08 12:00:00 TS -11.8322 48.8026 main 54 31 _____P___OP___ -1 -11.7160 48.8018 99 -12.0000 48.8000 TC 35 -11.8225 48.8053 2 14 206
1938007S10050 1938 4 SI MM NOT_NAMED 1938-01-08 15:00:00 TS -12.4900 48.4565 main 32 32 _____P___PP___ -1 -12.3366 48.4244 99 -12.6150 48.4724 TC 35 -12.5185 48.4726 2 15 209
1938007S10050 1938 4 SI MM NOT_NAMED 1938-01-08 18:00:00 TS -13.1311 48.0720 main 55 15 _____P___OO___ -1 -12.9933 48.0159 99 -13.2000 48.1000 TC 35 -13.2000 48.1000 2 15 212
1938007S10050 1938 4 SI MM NOT_NAMED 1938-01-08 21:00:00 TS -13.7416 47.6609 main 21 21 _____P___PP___ -1 -13.6570 47.5925 99 -13.7649 47.7148 TC 35 -13.8028 47.6752 2 15 214
1938007S10050 1938 4 SI MM NOT_NAMED 1938-01-09 00:00:00 TS -14.3230 47.2307 main 55 39 _____P___OP___ -1 -14.2986 47.1707 99 -14.3000 47.3000 TC 35 -14.3705 47.2213 2 14 217
1938007S10050 1938 4 SI MM NOT_NAMED 1938-01-09 03:00:00 TS -14.8707 46.7898 main 39 15 _____P___PP___ -1 -14.8891 46.7675 99 -14.8451 46.8202 TC 35 -14.8779 46.7815 2 13 218
1938007S10050 1938 4 SI MM NOT_NAMED 1938-01-09 06:00:00 TS -15.3333 46.4000 reunion main 24 15 _____O___OO___ -1 -15.4000 46.4000 99 9.90000 -15.3000 46.4000 TC 35 -15.3000 46.4000 2 10 219
1938007S10050 1938 4 SI MM NOT_NAMED 1938-01-09 09:00:00 TS -15.6522 46.1405 main 11 0 _____P___PP___ -1 -15.7388 46.1212 99 -15.5948 46.1622 TC 35 -15.6229 46.1383 2 7 219
1938007S10050 1938 4 SI MM NOT_NAMED 1938-01-09 12:00:00 TS -15.8905 45.9367 main 0 0 _____P___OP___ -1 -16.0097 45.8713 99 -15.8000 46.0000 TC 35 -15.8618 45.9387 2 6 221
1938007S10050 1938 4 SI MM NOT_NAMED 1938-01-09 15:00:00 TS -16.0944 45.7415 main 0 0 _____P___PP___ -1 -16.2234 45.6472 99 -16.0150 45.8074 TC 35 -16.0449 45.7698 2 5 225
1938007S10050 1938 4 SI MM NOT_NAMED 1938-01-09 18:00:00 TS -16.2634 45.5486 main 0 0 _____P___OO___ -1 -16.3903 45.4458 99 -16.2000 45.6000 TC 35 -16.2000 45.6000 2 5 231
1938007S10050 1938 4 SI MM NOT_NAMED 1938-01-09 21:00:00 TS -16.4194 45.3265 main 0 0 _____P___PP___ -1 -16.5210 45.2636 99 -16.3575 45.3500 TC 35 -16.3798 45.3659 2 5 235
1938007S10050 1938 4 SI MM NOT_NAMED 1938-01-10 00:00:00 TS -16.5545 45.1083 main 0 0 _____P___OP___ -1 -16.6259 45.0975 99 -16.5000 45.1000 TC 35 -16.5376 45.1275 2 5 237
1938007S10050 1938 4 SI MM NOT_NAMED 1938-01-10 03:00:00 TS -16.6832 44.9098 main 0 0 _____P___PP___ -1 -16.7154 44.9441 99 -16.6575 44.8850 TC 35 -16.6766 44.9003 2 4 236
1938007S10050 1938 4 SI MM NOT_NAMED 1938-01-10 06:00:00 TS -16.8000 44.7333 reunion main 0 0 _____O___OO___ -1 -16.8000 44.8000 99 9.90000 -16.8000 44.7000 TC 35 -16.8000 44.7000 2 4 235
1938007S10050 1938 4 SI MM NOT_NAMED 1938-01-10 09:00:00 TS -16.9094 44.5790 main 0 0 _____P___PP___ -1 -16.9065 44.6559 99 -16.9075 44.5350 TC 35 -16.9142 44.5461 2 3 233
1938007S10050 1938 4 SI MM NOT_NAMED 1938-01-10 12:00:00 TS -17.0042 44.4485 main 0 0 _____P___OP___ -1 -16.9978 44.5257 99 -17.0000 44.4000 TC 35 -17.0148 44.4198 2 3 231
1938007S10050 1938 4 SI MM NOT_NAMED 1938-01-10 15:00:00 TS -17.0962 44.3379 main 0 0 _____P___PP___ -1 -17.0807 44.4052 99 -17.1000 44.3000 TC 35 -17.1080 44.3086 2 3 229
1938007S10050 1938 4 SI MM NOT_NAMED 1938-01-10 18:00:00 TS -17.1872 44.2301 main 0 0 _____P___OO___ -1 -17.1617 44.2903 99 -17.2000 44.2000 TC 35 -17.2000 44.2000 2 3 231
1938007S10050 1938 4 SI MM NOT_NAMED 1938-01-10 21:00:00 TS -17.2743 44.1045 main 0 0 _____P___PP___ -1 -17.2475 44.1766 99 -17.3000 44.0500 TC 35 -17.2755 44.0869 2 3 233
1938007S10050 1938 4 SI MM NOT_NAMED 1938-01-11 00:00:00 TS -17.3665 43.9773 main 0 0 _____P___OP___ -1 -17.3447 44.0599 99 -17.4000 43.9000 TC 35 -17.3549 43.9721 2 3 230
1938007S10050 1938 4 SI MM NOT_NAMED 1938-01-11 03:00:00 TS -17.4647 43.8631 main 0 0 _____P___PP___ -1 -17.4600 43.9358 99 -17.4775 43.8074 TC 35 -17.4568 43.8462 2 3 225
1938007S10050 1938 4 SI MM NOT_NAMED 1938-01-11 06:00:00 TS -17.6000 43.7333 reunion main 23 23 _____O___OO___ -1 -17.6000 43.8000 99 9.90000 -17.6000 43.7000 TC 35 -17.6000 43.7000 2 4 221
1938007S10050 1938 4 SI MM NOT_NAMED 1938-01-11 09:00:00 TS -17.8001 43.5517 main 42 42 _____P___PP___ -1 -17.7617 43.6262 99 -17.8275 43.5150 TC 35 -17.8110 43.5137 2 6 220
1938007S10050 1938 4 SI MM NOT_NAMED 1938-01-11 12:00:00 TS -18.0354 43.3495 main 74 73 _____P___OP___ -1 -17.9436 43.4407 99 -18.1000 43.3000 TC 35 -18.0626 43.3078 2 6 219
1938007S10050 1938 4 SI MM NOT_NAMED 1938-01-11 15:00:00 TS -18.2789 43.1459 main 95 94 _____P___PP___ -1 -18.1464 43.2473 99 -18.3575 43.0925 TC 35 -18.3329 43.0980 2 6 218
1938007S10050 1938 4 SI MM NOT_NAMED 1938-01-11 18:00:00 TS -18.5236 42.9500 main 106 116 _____P___OO___ -1 -18.3707 43.0500 99 -18.6000 42.9000 TC 35 -18.6000 42.9000 2 6 217
1938007S10050 1938 4 SI MM NOT_NAMED 1938-01-11 21:00:00 TS -18.7417 42.7754 main 130 130 _____P___PP___ -1 -18.6175 42.8527 99 -18.8000 42.7424 TC 35 -18.8077 42.7312 2 5 216
1938007S10050 1938 4 SI MM NOT_NAMED 1938-01-12 00:00:00 TS -18.9666 42.6121 main 162 162 _____P___OP___ -1 -18.8874 42.6592 99 -19.0000 42.6000 TC 35 -19.0124 42.5770 2 6 213
1938007S10050 1938 4 SI MM NOT_NAMED 1938-01-12 03:00:00 TS -19.2149 42.4527 main 178 178 _____P___PP___ -1 -19.1813 42.4737 99 -19.2275 42.4499 TC 35 -19.2359 42.4343 2 6 209
1938007S10050 1938 4 SI MM NOT_NAMED 1938-01-12 06:00:00 TS -19.5000 42.3000 reunion main 204 204 _____O___OO___ -1 -19.5000 42.3000 99 9.90000 -19.5000 42.3000 TC 35 -19.5000 42.3000 2 7 205
1938007S10050 1938 4 SI MM NOT_NAMED 1938-01-12 09:00:00 TS -19.8404 42.1497 main 218 203 _____P___PP___ -1 -19.8700 42.1389 99 -19.8275 42.1425 TC 35 -19.8237 42.1677 2 8 201
1938007S10050 1938 4 SI MM NOT_NAMED 1938-01-12 12:00:00 TS -20.2204 42.0097 main 205 188 _____P___OP___ -1 -20.2713 41.9867 99 -20.2000 42.0000 TC 35 -20.1900 42.0423 2 8 197
1938007S10050 1938 4 SI MM NOT_NAMED 1938-01-12 15:00:00 TS -20.6237 41.8882 main 188 181 _____P___PP___ -1 -20.6925 41.8440 99 -20.5925 41.8998 TC 35 -20.5862 41.9208 2 9 195
1938007S10050 1938 4 SI MM NOT_NAMED 1938-01-12 18:00:00 TS -21.0408 41.7705 main 181 178 _____P___OO___ -1 -21.1223 41.7115 99 -21.0000 41.8000 TC 35 -21.0000 41.8000 2 9 196
1938007S10050 1938 4 SI MM NOT_NAMED 1938-01-12 21:00:00 TS -21.4542 41.6392 main 182 174 _____P___PP___ -1 -21.5493 41.5901 99 -21.3925 41.6500 TC 35 -21.4207 41.6775 2 9 196
1938007S10050 1938 4 SI MM NOT_NAMED 1938-01-13 00:00:00 TS -21.8784 41.5081 main 178 175 _____P___OP___ -1 -21.9622 41.4805 99 -21.8000 41.5000 TC 35 -21.8451 41.5531 2 9 195
1938007S10050 1938 4 SI MM NOT_NAMED 1938-01-13 03:00:00 TS -22.3027 41.3954 main 185 185 _____P___PP___ -1 -22.3495 41.3835 99 -22.2400 41.3876 TC 35 -22.2719 41.4271 2 8 193
1938007S10050 1938 4 SI MM NOT_NAMED 1938-01-13 06:00:00 TS -22.7000 41.3000 reunion main 200 200 _____O___OO___ -1 -22.7000 41.3000 99 9.90000 -22.7000 41.3000 TC 35 -22.7000 41.3000 2 7 192
1938007S10050 1938 4 SI MM NOT_NAMED 1938-01-13 09:00:00 NR -23.0052 41.2305 main 219 219 _____P________ -1 -23.0052 41.2305 99 TC 2 6 192
1938007S10050 1938 4 SI MM NOT_NAMED 1938-01-13 12:00:00 NR -23.2683 41.1737 main 231 231 _____P________ -1 -23.2683 41.1737 99 2 5 191
1938007S10050 1938 4 SI MM NOT_NAMED 1938-01-13 15:00:00 NR -23.4953 41.1279 main 247 247 _____P________ -1 -23.4953 41.1279 99 2 4 191
1938007S10050 1938 4 SI MM NOT_NAMED 1938-01-13 18:00:00 NR -23.6922 41.0912 main 254 254 _____P________ -1 -23.6922 41.0912 99 4 188
1938007S10050 1938 4 SI MM NOT_NAMED 1938-01-13 21:00:00 NR -23.8652 41.0620 main 255 255 _____P________ -1 -23.8652 41.0620 99 3 190
1938007S10050 1938 4 SI MM NOT_NAMED 1938-01-14 00:00:00 NR -24.0201 41.0382 main 266 266 _____P________ -1 -24.0201 41.0382 99 3 189
1938007S10050 1938 4 SI MM NOT_NAMED 1938-01-14 03:00:00 NR -24.1630 41.0182 main 269 269 _____P________ -1 -24.1630 41.0182 99 3 188
1938007S10050 1938 4 SI MM NOT_NAMED 1938-01-14 06:00:00 NR -24.3000 41.0000 reunion main 272 _____O________ -1 -24.3000 41.0000 99 9.90000 3 182

About IBTrACS Database

This database is a web-friendly format of International Best Track Archive for Climate Stewardship (IBTrACS), a global best track data archive curated by NOAA dating back to 1842.

Updated: 2021-10-25